Station Historical Data
Daily Summary for April 26, 2012 Units:  Both    English   Metric
« Previous Day
Next Day »
Daily Weekly Monthly Yearly Custom
  High: Low: Average:
Temperature: 74.4 °F /  23.6 °C 66.2 °F /  19 °C 70.3 °F /  21.3 °C
Dew Point: 67.3 °F /  19.6 °C 57.0 °F /  13.9 °C 63.1 °F /  17.3 °C
Humidity: 93% 63% 78%
Wind Speed: 17.0mph /  27.4km/h - 6.8mph /  10.9km/h
Wind Gust: 22.0mph /  35.4km/h - -
Wind- - SW
Pressure: 29.89 in /  1012.1 hPa 29.79 in /  1008.7 hPa -
Precipitation: 0.00 in /  0 mm    
Historical Graphs
 
 
Tabular Data for April 26, 2012
Time Temperature Dew Point Pressure Wind Wind Speed Wind Gust Humidity Rainfall Rate (Hourly) Conditions
00:00 70.2 °F /  21.2 °C 57.0 °F /  13.9 °C 29.79in /  1008.7hPa South 3.0mph /  4.8km/h 7.0mph /  11.3km/h 63% 0.00in /  0mm
00:03 70.2 °F /  21.2 °C 57.0 °F /  13.9 °C 29.79in /  1008.7hPa SSW 4.0mph /  6.4km/h 11.0mph /  17.7km/h 63% 0.00in /  0mm
00:05 70.3 °F /  21.3 °C 57.1 °F /  13.9 °C 29.79in /  1008.7hPa SW 5.0mph /  8km/h 9.0mph /  14.5km/h 63% 0.00in /  0mm
00:10 70.2 °F /  21.2 °C 57.5 °F /  14.2 °C 29.79in /  1008.7hPa SSW 1.0mph /  1.6km/h 8.0mph /  12.9km/h 64% 0.00in /  0mm
00:12 70.1 °F /  21.2 °C 57.4 °F /  14.1 °C 29.79in /  1008.7hPa SW 9.0mph /  14.5km/h 9.0mph /  14.5km/h 64% 0.00in /  0mm
00:17 70.0 °F /  21.1 °C 57.3 °F /  14.1 °C 29.79in /  1008.7hPa SW 5.0mph /  8km/h 8.0mph /  12.9km/h 64% 0.00in /  0mm
00:22 70.1 °F /  21.2 °C 57.4 °F /  14.1 °C 29.79in /  1008.7hPa SSW 3.0mph /  4.8km/h 9.0mph /  14.5km/h 64% 0.00in /  0mm
00:27 70.2 °F /  21.2 °C 57.5 °F /  14.2 °C 29.79in /  1008.7hPa SW 5.0mph /  8km/h 10.0mph /  16.1km/h 64% 0.00in /  0mm
00:32 70.0 °F /  21.1 °C 57.7 °F /  14.3 °C 29.79in /  1008.7hPa SW 8.0mph /  12.9km/h 9.0mph /  14.5km/h 65% 0.00in /  0mm
00:37 70.0 °F /  21.1 °C 57.7 °F /  14.3 °C 29.79in /  1008.7hPa SSW 6.0mph /  9.7km/h 11.0mph /  17.7km/h 65% 0.00in /  0mm
00:42 70.2 °F /  21.2 °C 57.9 °F /  14.4 °C 29.79in /  1008.7hPa WSW 6.0mph /  9.7km/h 11.0mph /  17.7km/h 65% 0.00in /  0mm
00:47 70.4 °F /  21.3 °C 58.1 °F /  14.5 °C 29.79in /  1008.7hPa SW 4.0mph /  6.4km/h 12.0mph /  19.3km/h 65% 0.00in /  0mm
00:52 70.5 °F /  21.4 °C 58.2 °F /  14.6 °C 29.79in /  1008.7hPa WSW 7.0mph /  11.3km/h 11.0mph /  17.7km/h 65% 0.00in /  0mm
00:57 70.7 °F /  21.5 °C 58.4 °F /  14.7 °C 29.79in /  1008.7hPa SW 11.0mph /  17.7km/h 14.0mph /  22.5km/h 65% 0.00in /  0mm
01:02 70.8 °F /  21.6 °C 58.5 °F /  14.7 °C 29.80in /  1009hPa South 5.0mph /  8km/h 11.0mph /  17.7km/h 65% 0.00in /  0mm
01:07 70.7 °F /  21.5 °C 58.8 °F /  14.9 °C 29.79in /  1008.7hPa SW 11.0mph /  17.7km/h 11.0mph /  17.7km/h 66% 0.00in /  0mm
01:12 70.8 °F /  21.6 °C 58.9 °F /  14.9 °C 29.79in /  1008.7hPa WSW 6.0mph /  9.7km/h 11.0mph /  17.7km/h 66% 0.00in /  0mm
01:17 70.7 °F /  21.5 °C 58.8 °F /  14.9 °C 29.80in /  1009hPa SSW 6.0mph /  9.7km/h 11.0mph /  17.7km/h 66% 0.00in /  0mm
01:22 70.8 °F /  21.6 °C 58.9 °F /  14.9 °C 29.80in /  1009hPa SW 6.0mph /  9.7km/h 14.0mph /  22.5km/h 66% 0.00in /  0mm
01:27 70.9 °F /  21.6 °C 59.0 °F /  15 °C 29.80in /  1009hPa SW 8.0mph /  12.9km/h 12.0mph /  19.3km/h 66% 0.00in /  0mm
01:32 70.7 °F /  21.5 °C 59.2 °F /  15.1 °C 29.80in /  1009hPa WSW 4.0mph /  6.4km/h 12.0mph /  19.3km/h 67% 0.00in /  0mm
01:38 70.6 °F /  21.4 °C 59.5 °F /  15.3 °C 29.80in /  1009hPa SW 8.0mph /  12.9km/h 11.0mph /  17.7km/h 68% 0.00in /  0mm
01:43 70.5 °F /  21.4 °C 59.4 °F /  15.2 °C 29.80in /  1009hPa SW 9.0mph /  14.5km/h 11.0mph /  17.7km/h 68% 0.00in /  0mm
01:48 70.6 °F /  21.4 °C 59.5 °F /  15.3 °C 29.80in /  1009hPa SSW 6.0mph /  9.7km/h 12.0mph /  19.3km/h 68% 0.00in /  0mm
01:53 70.6 °F /  21.4 °C 59.5 °F /  15.3 °C 29.80in /  1009hPa SW 7.0mph /  11.3km/h 12.0mph /  19.3km/h 68% 0.00in /  0mm
01:58 70.5 °F /  21.4 °C 59.4 °F /  15.2 °C 29.80in /  1009hPa West 4.0mph /  6.4km/h 11.0mph /  17.7km/h 68% 0.00in /  0mm
02:03 70.3 °F /  21.3 °C 59.7 °F /  15.4 °C 29.80in /  1009hPa SW 11.0mph /  17.7km/h 13.0mph /  20.9km/h 69% 0.00in /  0mm
02:08 70.3 °F /  21.3 °C 59.7 °F /  15.4 °C 29.80in /  1009hPa SW 13.0mph /  20.9km/h 14.0mph /  22.5km/h 69% 0.00in /  0mm
02:13 70.3 °F /  21.3 °C 59.7 °F /  15.4 °C 29.80in /  1009hPa SW 10.0mph /  16.1km/h 12.0mph /  19.3km/h 69% 0.00in /  0mm
02:18 70.2 °F /  21.2 °C 59.6 °F /  15.3 °C 29.80in /  1009hPa SW 11.0mph /  17.7km/h 12.0mph /  19.3km/h 69% 0.00in /  0mm
02:23 70.3 °F /  21.3 °C 59.7 °F /  15.4 °C 29.80in /  1009hPa SW 9.0mph /  14.5km/h 13.0mph /  20.9km/h 69% 0.00in /  0mm
02:28 70.0 °F /  21.1 °C 59.8 °F /  15.4 °C 29.80in /  1009hPa SW 12.0mph /  19.3km/h 12.0mph /  19.3km/h 70% 0.00in /  0mm
02:33 69.9 °F /  21.1 °C 59.7 °F /  15.4 °C 29.80in /  1009hPa SSW 6.0mph /  9.7km/h 15.0mph /  24.1km/h 70% 0.00in /  0mm
02:38 69.9 °F /  21.1 °C 59.7 °F /  15.4 °C 29.80in /  1009hPa SSW 11.0mph /  17.7km/h 17.0mph /  27.4km/h 70% 0.00in /  0mm
02:43 69.9 °F /  21.1 °C 59.7 °F /  15.4 °C 29.80in /  1009hPa SSW 11.0mph /  17.7km/h 14.0mph /  22.5km/h 70% 0.00in /  0mm
02:48 69.6 °F /  20.9 °C 59.8 °F /  15.4 °C 29.80in /  1009hPa SW 8.0mph /  12.9km/h 11.0mph /  17.7km/h 71% 0.00in /  0mm
02:53 69.6 °F /  20.9 °C 59.8 °F /  15.4 °C 29.80in /  1009hPa SW 13.0mph /  20.9km/h 15.0mph /  24.1km/h 71% 0.00in /  0mm
02:58 69.6 °F /  20.9 °C 59.8 °F /  15.4 °C 29.80in /  1009hPa SW 13.0mph /  20.9km/h 14.0mph /  22.5km/h 71% 0.00in /  0mm
03:03 69.7 °F /  20.9 °C 59.9 °F /  15.5 °C 29.80in /  1009hPa SW 8.0mph /  12.9km/h 15.0mph /  24.1km/h 71% 0.00in /  0mm
03:08 69.7 °F /  20.9 °C 59.9 °F /  15.5 °C 29.79in /  1008.7hPa SW 8.0mph /  12.9km/h 14.0mph /  22.5km/h 71% 0.00in /  0mm
03:13 69.5 °F /  20.8 °C 59.7 °F /  15.4 °C 29.80in /  1009hPa SW 14.0mph /  22.5km/h 14.0mph /  22.5km/h 71% 0.00in /  0mm
03:18 69.4 °F /  20.8 °C 60.0 °F /  15.6 °C 29.79in /  1008.7hPa WSW 6.0mph /  9.7km/h 11.0mph /  17.7km/h 72% 0.00in /  0mm
03:23 69.4 °F /  20.8 °C 60.0 °F /  15.6 °C 29.79in /  1008.7hPa SW 5.0mph /  8km/h 14.0mph /  22.5km/h 72% 0.00in /  0mm
03:29 69.2 °F /  20.7 °C 59.8 °F /  15.4 °C 29.80in /  1009hPa SW 12.0mph /  19.3km/h 13.0mph /  20.9km/h 72% 0.00in /  0mm
03:34 69.4 °F /  20.8 °C 60.0 °F /  15.6 °C 29.79in /  1008.7hPa WSW 10.0mph /  16.1km/h 16.0mph /  25.7km/h 72% 0.00in /  0mm
03:39 69.4 °F /  20.8 °C 60.0 °F /  15.6 °C 29.79in /  1008.7hPa WSW 11.0mph /  17.7km/h 17.0mph /  27.4km/h 72% 0.00in /  0mm
03:44 69.4 °F /  20.8 °C 60.0 °F /  15.6 °C 29.80in /  1009hPa SSW 6.0mph /  9.7km/h 13.0mph /  20.9km/h 72% 0.00in /  0mm
03:49 69.3 °F /  20.7 °C 59.9 °F /  15.5 °C 29.79in /  1008.7hPa SW 13.0mph /  20.9km/h 15.0mph /  24.1km/h 72% 0.00in /  0mm
03:54 69.3 °F /  20.7 °C 59.9 °F /  15.5 °C 29.79in /  1008.7hPa SW 4.0mph /  6.4km/h 14.0mph /  22.5km/h 72% 0.00in /  0mm
03:59 69.2 °F /  20.7 °C 60.2 °F /  15.7 °C 29.79in /  1008.7hPa SW 11.0mph /  17.7km/h 13.0mph /  20.9km/h 73% 0.00in /  0mm
04:04 69.2 °F /  20.7 °C 60.2 °F /  15.7 °C 29.79in /  1008.7hPa SW 14.0mph /  22.5km/h 14.0mph /  22.5km/h 73% 0.00in /  0mm
04:09 69.0 °F /  20.6 °C 60.0 °F /  15.6 °C 29.80in /  1009hPa SW 13.0mph /  20.9km/h 14.0mph /  22.5km/h 73% 0.00in /  0mm
04:14 69.0 °F /  20.6 °C 60.4 °F /  15.8 °C 29.80in /  1009hPa SW 10.0mph /  16.1km/h 17.0mph /  27.4km/h 74% 0.00in /  0mm
04:19 68.8 °F /  20.4 °C 60.2 °F /  15.7 °C 29.80in /  1009hPa SW 6.0mph /  9.7km/h 22.0mph /  35.4km/h 74% 0.00in /  0mm
04:24 68.8 °F /  20.4 °C 60.2 °F /  15.7 °C 29.80in /  1009hPa SW 10.0mph /  16.1km/h 15.0mph /  24.1km/h 74% 0.00in /  0mm
04:29 68.7 °F /  20.4 °C 60.1 °F /  15.6 °C 29.80in /  1009hPa SW 17.0mph /  27.4km/h 17.0mph /  27.4km/h 74% 0.00in /  0mm
04:34 68.7 °F /  20.4 °C 60.1 °F /  15.6 °C 29.80in /  1009hPa SW 11.0mph /  17.7km/h 13.0mph /  20.9km/h 74% 0.00in /  0mm
04:39 68.6 °F /  20.3 °C 60.0 °F /  15.6 °C 29.80in /  1009hPa SSW 7.0mph /  11.3km/h 17.0mph /  27.4km/h 74% 0.00in /  0mm
04:44 68.4 °F /  20.2 °C 60.2 °F /  15.7 °C 29.79in /  1008.7hPa SW 11.0mph /  17.7km/h 13.0mph /  20.9km/h 75% 0.00in /  0mm
04:49 68.3 °F /  20.2 °C 60.1 °F /  15.6 °C 29.79in /  1008.7hPa SW 9.0mph /  14.5km/h 15.0mph /  24.1km/h 75% 0.00in /  0mm
04:52 68.1 °F /  20.1 °C 59.9 °F /  15.5 °C 29.79in /  1008.7hPa West 8.0mph /  12.9km/h 12.0mph /  19.3km/h 75% 0.00in /  0mm
04:57 68.1 °F /  20.1 °C 59.9 °F /  15.5 °C 29.79in /  1008.7hPa WSW 8.0mph /  12.9km/h 15.0mph /  24.1km/h 75% 0.00in /  0mm
05:02 68.1 °F /  20.1 °C 60.3 °F /  15.7 °C 29.79in /  1008.7hPa WSW 10.0mph /  16.1km/h 17.0mph /  27.4km/h 76% 0.00in /  0mm
05:07 68.0 °F /  20 °C 60.2 °F /  15.7 °C 29.80in /  1009hPa SSW 11.0mph /  17.7km/h 18.0mph /  29km/h 76% 0.00in /  0mm
05:12 68.0 °F /  20 °C 59.8 °F /  15.4 °C 29.80in /  1009hPa SW 11.0mph /  17.7km/h 14.0mph /  22.5km/h 75% 0.00in /  0mm
05:17 67.9 °F /  19.9 °C 60.1 °F /  15.6 °C 29.80in /  1009hPa SW 11.0mph /  17.7km/h 18.0mph /  29km/h 76% 0.00in /  0mm
05:22 67.8 °F /  19.9 °C 60.0 °F /  15.6 °C 29.80in /  1009hPa SW 11.0mph /  17.7km/h 12.0mph /  19.3km/h 76% 0.00in /  0mm
05:27 67.8 °F /  19.9 °C 60.0 °F /  15.6 °C 29.80in /  1009hPa SSW 15.0mph /  24.1km/h 16.0mph /  25.7km/h 76% 0.00in /  0mm
05:32 67.8 °F /  19.9 °C 60.0 °F /  15.6 °C 29.80in /  1009hPa SSW 9.0mph /  14.5km/h 20.0mph /  32.2km/h 76% 0.00in /  0mm
05:37 67.7 °F /  19.8 °C 59.9 °F /  15.5 °C 29.80in /  1009hPa SW 11.0mph /  17.7km/h 14.0mph /  22.5km/h 76% 0.00in /  0mm
05:42 67.7 °F /  19.8 °C 59.9 °F /  15.5 °C 29.79in /  1008.7hPa WSW 12.0mph /  19.3km/h 16.0mph /  25.7km/h 76% 0.00in /  0mm
05:47 67.6 °F /  19.8 °C 59.8 °F /  15.4 °C 29.80in /  1009hPa SSW 4.0mph /  6.4km/h 15.0mph /  24.1km/h 76% 0.00in /  0mm
05:52 67.6 °F /  19.8 °C 59.8 °F /  15.4 °C 29.80in /  1009hPa SW 9.0mph /  14.5km/h 20.0mph /  32.2km/h 76% 0.00in /  0mm
05:57 67.5 °F /  19.7 °C 59.7 °F /  15.4 °C 29.80in /  1009hPa SW 14.0mph /  22.5km/h 17.0mph /  27.4km/h 76% 0.00in /  0mm
06:02 67.5 °F /  19.7 °C 59.7 °F /  15.4 °C 29.80in /  1009hPa SW 9.0mph /  14.5km/h 13.0mph /  20.9km/h 76% 0.00in /  0mm
06:07 67.5 °F /  19.7 °C 59.7 °F /  15.4 °C 29.79in /  1008.7hPa SW 14.0mph /  22.5km/h 14.0mph /  22.5km/h 76% 0.00in /  0mm
06:12 67.5 °F /  19.7 °C 59.7 °F /  15.4 °C 29.80in /  1009hPa WSW 13.0mph /  20.9km/h 13.0mph /  20.9km/h 76% 0.00in /  0mm
06:17 67.5 °F /  19.7 °C 59.7 °F /  15.4 °C 29.80in /  1009hPa WSW 10.0mph /  16.1km/h 16.0mph /  25.7km/h 76% 0.00in /  0mm
06:22 67.4 °F /  19.7 °C 60.0 °F /  15.6 °C 29.80in /  1009hPa SW 8.0mph /  12.9km/h 14.0mph /  22.5km/h 77% 0.00in /  0mm
06:27 67.3 °F /  19.6 °C 59.8 °F /  15.4 °C 29.80in /  1009hPa SW 10.0mph /  16.1km/h 11.0mph /  17.7km/h 77% 0.00in /  0mm
06:32 67.2 °F /  19.6 °C 59.8 °F /  15.4 °C 29.80in /  1009hPa SW 12.0mph /  19.3km/h 12.0mph /  19.3km/h 77% 0.00in /  0mm
06:37 67.1 °F /  19.5 °C 59.7 °F /  15.4 °C 29.80in /  1009hPa SW 12.0mph /  19.3km/h 12.0mph /  19.3km/h 77% 0.00in /  0mm
06:43 67.1 °F /  19.5 °C 59.7 °F /  15.4 °C 29.80in /  1009hPa West 4.0mph /  6.4km/h 14.0mph /  22.5km/h 77% 0.00in /  0mm
06:48 67.0 °F /  19.4 °C 59.6 °F /  15.3 °C 29.80in /  1009hPa SW 11.0mph /  17.7km/h 15.0mph /  24.1km/h 77% 0.00in /  0mm
06:53 66.9 °F /  19.4 °C 59.8 °F /  15.4 °C 29.81in /  1009.4hPa SW 13.0mph /  20.9km/h 13.0mph /  20.9km/h 78% 0.00in /  0mm
06:58 66.8 °F /  19.3 °C 59.7 °F /  15.4 °C 29.81in /  1009.4hPa SW 10.0mph /  16.1km/h 15.0mph /  24.1km/h 78% 0.00in /  0mm
07:03 66.7 °F /  19.3 °C 59.6 °F /  15.3 °C 29.81in /  1009.4hPa SW 10.0mph /  16.1km/h 11.0mph /  17.7km/h 78% 0.00in /  0mm
07:08 66.6 °F /  19.2 °C 59.5 °F /  15.3 °C 29.81in /  1009.4hPa SSW 9.0mph /  14.5km/h 12.0mph /  19.3km/h 78% 0.00in /  0mm
07:13 66.5 °F /  19.2 °C 59.8 °F /  15.4 °C 29.82in /  1009.7hPa SW 11.0mph /  17.7km/h 11.0mph /  17.7km/h 79% 0.00in /  0mm
07:18 66.5 °F /  19.2 °C 59.8 °F /  15.4 °C 29.82in /  1009.7hPa SW 8.0mph /  12.9km/h 17.0mph /  27.4km/h 79% 0.00in /  0mm
07:23 66.4 °F /  19.1 °C 59.7 °F /  15.4 °C 29.82in /  1009.7hPa WSW 6.0mph /  9.7km/h 14.0mph /  22.5km/h 79% 0.00in /  0mm
07:28 66.4 °F /  19.1 °C 59.7 °F /  15.4 °C 29.82in /  1009.7hPa SW 15.0mph /  24.1km/h 17.0mph /  27.4km/h 79% 0.00in /  0mm
07:33 66.3 °F /  19.1 °C 59.6 °F /  15.3 °C 29.81in /  1009.4hPa SSW 6.0mph /  9.7km/h 12.0mph /  19.3km/h 79% 0.00in /  0mm
07:38 66.2 °F /  19 °C 59.5 °F /  15.3 °C 29.81in /  1009.4hPa SW 8.0mph /  12.9km/h 15.0mph /  24.1km/h 79% 0.00in /  0mm
07:43 66.2 °F /  19 °C 59.9 °F /  15.5 °C 29.82in /  1009.7hPa SW 10.0mph /  16.1km/h 11.0mph /  17.7km/h 80% 0.00in /  0mm
07:48 66.2 °F /  19 °C 59.9 °F /  15.5 °C 29.81in /  1009.4hPa WSW 7.0mph /  11.3km/h 13.0mph /  20.9km/h 80% 0.00in /  0mm
07:53 66.2 °F /  19 °C 59.9 °F /  15.5 °C 29.82in /  1009.7hPa SW 6.0mph /  9.7km/h 11.0mph /  17.7km/h 80% 0.00in /  0mm
07:58 66.3 °F /  19.1 °C 60.0 °F /  15.6 °C 29.82in /  1009.7hPa WSW 10.0mph /  16.1km/h 12.0mph /  19.3km/h 80% 0.00in /  0mm
08:03 66.3 °F /  19.1 °C 60.0 °F /  15.6 °C 29.82in /  1009.7hPa WSW 15.0mph /  24.1km/h 18.0mph /  29km/h 80% 0.00in /  0mm
08:08 66.6 °F /  19.2 °C 59.9 °F /  15.5 °C 29.81in /  1009.4hPa SW 11.0mph /  17.7km/h 17.0mph /  27.4km/h 79% 0.00in /  0mm
08:13 66.8 °F /  19.3 °C 60.1 °F /  15.6 °C 29.82in /  1009.7hPa SSW 5.0mph /  8km/h 18.0mph /  29km/h 79% 0.00in /  0mm
08:18 67.0 °F /  19.4 °C 60.3 °F /  15.7 °C 29.81in /  1009.4hPa South 7.0mph /  11.3km/h 15.0mph /  24.1km/h 79% 0.00in /  0mm
08:23 67.0 °F /  19.4 °C 60.3 °F /  15.7 °C 29.81in /  1009.4hPa SW 15.0mph /  24.1km/h 16.0mph /  25.7km/h 79% 0.00in /  0mm
08:28 66.9 °F /  19.4 °C 60.2 °F /  15.7 °C 29.81in /  1009.4hPa SW 12.0mph /  19.3km/h 15.0mph /  24.1km/h 79% 0.00in /  0mm
08:33 66.7 °F /  19.3 °C 60.3 °F /  15.7 °C 29.82in /  1009.7hPa SSW 8.0mph /  12.9km/h 12.0mph /  19.3km/h 80% 0.00in /  0mm
08:39 66.6 °F /  19.2 °C 60.2 °F /  15.7 °C 29.83in /  1010hPa SW 5.0mph /  8km/h 15.0mph /  24.1km/h 80% 0.00in /  0mm
08:44 66.3 °F /  19.1 °C 60.0 °F /  15.6 °C 29.83in /  1010hPa WNW 5.0mph /  8km/h 7.0mph /  11.3km/h 80% 0.00in /  0mm
08:49 66.3 °F /  19.1 °C 60.3 °F /  15.7 °C 29.83in /  1010hPa SW 9.0mph /  14.5km/h 14.0mph /  22.5km/h 81% 0.00in /  0mm
08:54 66.7 °F /  19.3 °C 60.7 °F /  15.9 °C 29.83in /  1010hPa SW 9.0mph /  14.5km/h 11.0mph /  17.7km/h 81% 0.00in /  0mm
08:59 66.7 °F /  19.3 °C 60.3 °F /  15.7 °C 29.83in /  1010hPa WSW 10.0mph /  16.1km/h 15.0mph /  24.1km/h 80% 0.00in /  0mm
09:04 66.6 °F /  19.2 °C 60.6 °F /  15.9 °C 29.84in /  1010.4hPa WSW 10.0mph /  16.1km/h 16.0mph /  25.7km/h 81% 0.00in /  0mm
09:09 66.8 °F /  19.3 °C 60.8 °F /  16 °C 29.84in /  1010.4hPa SW 8.0mph /  12.9km/h 14.0mph /  22.5km/h 81% 0.00in /  0mm
09:14 66.7 °F /  19.3 °C 60.7 °F /  15.9 °C 29.83in /  1010hPa SW 17.0mph /  27.4km/h 17.0mph /  27.4km/h 81% 0.00in /  0mm
09:19 66.5 °F /  19.2 °C 60.5 °F /  15.8 °C 29.83in /  1010hPa West 5.0mph /  8km/h 14.0mph /  22.5km/h 81% 0.00in /  0mm
09:24 66.4 °F /  19.1 °C 60.7 °F /  15.9 °C 29.83in /  1010hPa SW 7.0mph /  11.3km/h 11.0mph /  17.7km/h 82% 0.00in /  0mm
09:29 66.5 °F /  19.2 °C 60.8 °F /  16 °C 29.83in /  1010hPa South 4.0mph /  6.4km/h 11.0mph /  17.7km/h 82% 0.00in /  0mm
09:34 66.5 °F /  19.2 °C 60.5 °F /  15.8 °C 29.84in /  1010.4hPa SW 16.0mph /  25.7km/h 16.0mph /  25.7km/h 81% 0.00in /  0mm
09:39 67.0 °F /  19.4 °C 61.3 °F /  16.3 °C 29.84in /  1010.4hPa SW 8.0mph /  12.9km/h 11.0mph /  17.7km/h 82% 0.00in /  0mm
09:44 67.4 °F /  19.7 °C 61.0 °F /  16.1 °C 29.83in /  1010hPa SW 11.0mph /  17.7km/h 17.0mph /  27.4km/h 80% 0.00in /  0mm
09:49 67.7 °F /  19.8 °C 61.3 °F /  16.3 °C 29.83in /  1010hPa WSW 4.0mph /  6.4km/h 12.0mph /  19.3km/h 80% 0.00in /  0mm
09:54 67.8 °F /  19.9 °C 61.1 °F /  16.2 °C 29.84in /  1010.4hPa SW 5.0mph /  8km/h 17.0mph /  27.4km/h 79% 0.00in /  0mm
09:59 67.7 °F /  19.8 °C 61.3 °F /  16.3 °C 29.84in /  1010.4hPa WSW 11.0mph /  17.7km/h 13.0mph /  20.9km/h 80% 0.00in /  0mm
10:04 68.3 °F /  20.2 °C 61.9 °F /  16.6 °C 29.84in /  1010.4hPa SSW 7.0mph /  11.3km/h 12.0mph /  19.3km/h 80% 0.00in /  0mm
10:09 68.1 °F /  20.1 °C 61.3 °F /  16.3 °C 29.84in /  1010.4hPa West 9.0mph /  14.5km/h 13.0mph /  20.9km/h 79% 0.00in /  0mm
10:14 68.4 °F /  20.2 °C 62.0 °F /  16.7 °C 29.84in /  1010.4hPa SW 8.0mph /  12.9km/h 13.0mph /  20.9km/h 80% 0.00in /  0mm
10:20 68.5 °F /  20.3 °C 61.7 °F /  16.5 °C 29.85in /  1010.7hPa SSW 6.0mph /  9.7km/h 13.0mph /  20.9km/h 79% 0.00in /  0mm
10:25 68.5 °F /  20.3 °C 61.7 °F /  16.5 °C 29.84in /  1010.4hPa SW 9.0mph /  14.5km/h 11.0mph /  17.7km/h 79% 0.00in /  0mm
10:30 68.8 °F /  20.4 °C 61.7 °F /  16.5 °C 29.85in /  1010.7hPa South 10.0mph /  16.1km/h 14.0mph /  22.5km/h 78% 0.00in /  0mm
10:35 69.2 °F /  20.7 °C 62.4 °F /  16.9 °C 29.85in /  1010.7hPa SSW 6.0mph /  9.7km/h 11.0mph /  17.7km/h 79% 0.00in /  0mm
10:40 69.6 °F /  20.9 °C 62.1 °F /  16.7 °C 29.85in /  1010.7hPa South 7.0mph /  11.3km/h 12.0mph /  19.3km/h 77% 0.00in /  0mm
10:45 70.1 °F /  21.2 °C 62.2 °F /  16.8 °C 29.85in /  1010.7hPa SSW 17.0mph /  27.4km/h 17.0mph /  27.4km/h 76% 0.00in /  0mm
10:50 70.1 °F /  21.2 °C 62.6 °F /  17 °C 29.85in /  1010.7hPa SW 10.0mph /  16.1km/h 12.0mph /  19.3km/h 77% 0.00in /  0mm
10:55 69.8 °F /  21 °C 62.3 °F /  16.8 °C 29.85in /  1010.7hPa SW 7.0mph /  11.3km/h 15.0mph /  24.1km/h 77% 0.00in /  0mm
11:00 70.1 °F /  21.2 °C 62.9 °F /  17.2 °C 29.85in /  1010.7hPa SSW 9.0mph /  14.5km/h 13.0mph /  20.9km/h 78% 0.00in /  0mm
11:05 70.3 °F /  21.3 °C 62.8 °F /  17.1 °C 29.85in /  1010.7hPa South 4.0mph /  6.4km/h 14.0mph /  22.5km/h 77% 0.00in /  0mm
11:10 70.5 °F /  21.4 °C 63.0 °F /  17.2 °C 29.85in /  1010.7hPa WSW 9.0mph /  14.5km/h 18.0mph /  29km/h 77% 0.00in /  0mm
11:15 70.8 °F /  21.6 °C 62.9 °F /  17.2 °C 29.85in /  1010.7hPa SSW 9.0mph /  14.5km/h 14.0mph /  22.5km/h 76% 0.00in /  0mm
11:20 70.9 °F /  21.6 °C 63.7 °F /  17.6 °C 29.85in /  1010.7hPa WSW 8.0mph /  12.9km/h 14.0mph /  22.5km/h 78% 0.00in /  0mm
11:26 71.2 °F /  21.8 °C 63.3 °F /  17.4 °C 29.85in /  1010.7hPa SW 10.0mph /  16.1km/h 15.0mph /  24.1km/h 76% 0.00in /  0mm
11:31 71.4 °F /  21.9 °C 63.5 °F /  17.5 °C 29.85in /  1010.7hPa SW 6.0mph /  9.7km/h 17.0mph /  27.4km/h 76% 0.00in /  0mm
11:36 71.7 °F /  22.1 °C 63.7 °F /  17.6 °C 29.85in /  1010.7hPa WSW 10.0mph /  16.1km/h 12.0mph /  19.3km/h 76% 0.00in /  0mm
11:41 72.0 °F /  22.2 °C 64.4 °F /  18 °C 29.85in /  1010.7hPa South 12.0mph /  19.3km/h 15.0mph /  24.1km/h 77% 0.00in /  0mm
11:46 72.6 °F /  22.6 °C 64.6 °F /  18.1 °C 29.85in /  1010.7hPa WSW 8.0mph /  12.9km/h 13.0mph /  20.9km/h 76% 0.00in /  0mm
11:51 72.5 °F /  22.5 °C 64.1 °F /  17.8 °C 29.85in /  1010.7hPa SW 17.0mph /  27.4km/h 17.0mph /  27.4km/h 75% 0.00in /  0mm
11:56 72.3 °F /  22.4 °C 64.3 °F /  17.9 °C 29.85in /  1010.7hPa SW 10.0mph /  16.1km/h 18.0mph /  29km/h 76% 0.00in /  0mm
12:01 72.5 °F /  22.5 °C 64.5 °F /  18.1 °C 29.85in /  1010.7hPa SW 6.0mph /  9.7km/h 13.0mph /  20.9km/h 76% 0.00in /  0mm
12:06 72.4 °F /  22.4 °C 64.0 °F /  17.8 °C 29.85in /  1010.7hPa SSW 10.0mph /  16.1km/h 14.0mph /  22.5km/h 75% 0.00in /  0mm
12:11 72.4 °F /  22.4 °C 64.0 °F /  17.8 °C 29.85in /  1010.7hPa SW 13.0mph /  20.9km/h 16.0mph /  25.7km/h 75% 0.00in /  0mm
12:16 72.5 °F /  22.5 °C 64.5 °F /  18.1 °C 29.85in /  1010.7hPa SSW 9.0mph /  14.5km/h 15.0mph /  24.1km/h 76% 0.00in /  0mm
12:21 72.8 °F /  22.7 °C 64.4 °F /  18 °C 29.86in /  1011.1hPa West 8.0mph /  12.9km/h 16.0mph /  25.7km/h 75% 0.00in /  0mm
12:26 72.8 °F /  22.7 °C 64.4 °F /  18 °C 29.86in /  1011.1hPa WSW 12.0mph /  19.3km/h 15.0mph /  24.1km/h 75% 0.00in /  0mm
12:31 72.5 °F /  22.5 °C 64.1 °F /  17.8 °C 29.86in /  1011.1hPa SSW 11.0mph /  17.7km/h 20.0mph /  32.2km/h 75% 0.00in /  0mm
12:36 72.4 °F /  22.4 °C 64.4 °F /  18 °C 29.85in /  1010.7hPa WSW 4.0mph /  6.4km/h 13.0mph /  20.9km/h 76% 0.00in /  0mm
12:41 72.7 °F /  22.6 °C 64.3 °F /  17.9 °C 29.85in /  1010.7hPa SW 11.0mph /  17.7km/h 14.0mph /  22.5km/h 75% 0.00in /  0mm
12:46 72.7 °F /  22.6 °C 64.3 °F /  17.9 °C 29.85in /  1010.7hPa WSW 10.0mph /  16.1km/h 12.0mph /  19.3km/h 75% 0.00in /  0mm
12:51 73.3 °F /  22.9 °C 65.3 °F /  18.5 °C 29.85in /  1010.7hPa WSW 9.0mph /  14.5km/h 13.0mph /  20.9km/h 76% 0.00in /  0mm
12:56 73.8 °F /  23.2 °C 65.4 °F /  18.6 °C 29.85in /  1010.7hPa SW 6.0mph /  9.7km/h 10.0mph /  16.1km/h 75% 0.00in /  0mm
13:01 73.7 °F /  23.2 °C 65.3 °F /  18.5 °C 29.85in /  1010.7hPa SW 7.0mph /  11.3km/h 13.0mph /  20.9km/h 75% 0.00in /  0mm
13:06 73.4 °F /  23 °C 65.0 °F /  18.3 °C 29.85in /  1010.7hPa SSW 6.0mph /  9.7km/h 10.0mph /  16.1km/h 75% 0.00in /  0mm
13:12 73.7 °F /  23.2 °C 65.7 °F /  18.7 °C 29.84in /  1010.4hPa SW 4.0mph /  6.4km/h 11.0mph /  17.7km/h 76% 0.00in /  0mm
13:17 74.2 °F /  23.4 °C 65.8 °F /  18.8 °C 29.85in /  1010.7hPa WSW 13.0mph /  20.9km/h 17.0mph /  27.4km/h 75% 0.00in /  0mm
13:22 74.1 °F /  23.4 °C 65.3 °F /  18.5 °C 29.84in /  1010.4hPa WSW 9.0mph /  14.5km/h 16.0mph /  25.7km/h 74% 0.00in /  0mm
13:27 74.1 °F /  23.4 °C 65.3 °F /  18.5 °C 29.85in /  1010.7hPa SW 9.0mph /  14.5km/h 13.0mph /  20.9km/h 74% 0.00in /  0mm
13:32 74.1 °F /  23.4 °C 66.1 °F /  18.9 °C 29.84in /  1010.4hPa SW 4.0mph /  6.4km/h 12.0mph /  19.3km/h 76% 0.00in /  0mm
13:37 74.4 °F /  23.6 °C 66.0 °F /  18.9 °C 29.84in /  1010.4hPa West 5.0mph /  8km/h 12.0mph /  19.3km/h 75% 0.00in /  0mm
13:42 74.3 °F /  23.5 °C 65.9 °F /  18.8 °C 29.84in /  1010.4hPa SW 8.0mph /  12.9km/h 13.0mph /  20.9km/h 75% 0.00in /  0mm
13:47 74.4 °F /  23.6 °C 65.6 °F /  18.7 °C 29.84in /  1010.4hPa SW 6.0mph /  9.7km/h 14.0mph /  22.5km/h 74% 0.00in /  0mm
13:52 73.7 °F /  23.2 °C 65.3 °F /  18.5 °C 29.84in /  1010.4hPa SW 11.0mph /  17.7km/h 17.0mph /  27.4km/h 75% 0.00in /  0mm
13:57 73.7 °F /  23.2 °C 65.7 °F /  18.7 °C 29.84in /  1010.4hPa SW 14.0mph /  22.5km/h 14.0mph /  22.5km/h 76% 0.00in /  0mm
14:02 73.5 °F /  23.1 °C 65.5 °F /  18.6 °C 29.84in /  1010.4hPa SW 11.0mph /  17.7km/h 13.0mph /  20.9km/h 76% 0.00in /  0mm
14:07 73.2 °F /  22.9 °C 65.2 °F /  18.4 °C 29.85in /  1010.7hPa West 11.0mph /  17.7km/h 15.0mph /  24.1km/h 76% 0.00in /  0mm
14:12 73.1 °F /  22.8 °C 65.8 °F /  18.8 °C 29.84in /  1010.4hPa SW 9.0mph /  14.5km/h 14.0mph /  22.5km/h 78% 0.00in /  0mm
14:17 73.0 °F /  22.8 °C 65.4 °F /  18.6 °C 29.84in /  1010.4hPa SSW 5.0mph /  8km/h 13.0mph /  20.9km/h 77% 0.00in /  0mm
14:22 73.1 °F /  22.8 °C 65.8 °F /  18.8 °C 29.85in /  1010.7hPa SSW 7.0mph /  11.3km/h 11.0mph /  17.7km/h 78% 0.00in /  0mm
14:23 73.1 °F /  22.8 °C 65.8 °F /  18.8 °C 29.85in /  1010.7hPa South 8.0mph /  12.9km/h 13.0mph /  20.9km/h 78% 0.00in /  0mm
14:24 73.1 °F /  22.8 °C 65.8 °F /  18.8 °C 29.85in /  1010.7hPa SSW 7.0mph /  11.3km/h 13.0mph /  20.9km/h 78% 0.00in /  0mm
14:29 73.1 °F /  22.8 °C 65.8 °F /  18.8 °C 29.85in /  1010.7hPa SW 8.0mph /  12.9km/h 12.0mph /  19.3km/h 78% 0.00in /  0mm
14:34 73.3 °F /  22.9 °C 66.0 °F /  18.9 °C 29.84in /  1010.4hPa SW 8.0mph /  12.9km/h 9.0mph /  14.5km/h 78% 0.00in /  0mm
14:39 73.2 °F /  22.9 °C 65.6 °F /  18.7 °C 29.85in /  1010.7hPa SSW 7.0mph /  11.3km/h 15.0mph /  24.1km/h 77% 0.00in /  0mm
14:44 73.3 °F /  22.9 °C 66.0 °F /  18.9 °C 29.84in /  1010.4hPa SW 5.0mph /  8km/h 12.0mph /  19.3km/h 78% 0.00in /  0mm
14:49 73.3 °F /  22.9 °C 66.0 °F /  18.9 °C 29.85in /  1010.7hPa SW 9.0mph /  14.5km/h 12.0mph /  19.3km/h 78% 0.00in /  0mm
14:54 73.2 °F /  22.9 °C 65.9 °F /  18.8 °C 29.84in /  1010.4hPa SSW 3.0mph /  4.8km/h 13.0mph /  20.9km/h 78% 0.00in /  0mm
14:59 73.3 °F /  22.9 °C 66.0 °F /  18.9 °C 29.84in /  1010.4hPa SW 10.0mph /  16.1km/h 13.0mph /  20.9km/h 78% 0.00in /  0mm
15:04 73.2 °F /  22.9 °C 65.9 °F /  18.8 °C 29.85in /  1010.7hPa West 6.0mph /  9.7km/h 13.0mph /  20.9km/h 78% 0.00in /  0mm
15:09 73.5 °F /  23.1 °C 66.6 °F /  19.2 °C 29.84in /  1010.4hPa SW 7.0mph /  11.3km/h 10.0mph /  16.1km/h 79% 0.00in /  0mm
15:14 73.6 °F /  23.1 °C 66.3 °F /  19.1 °C 29.84in /  1010.4hPa SSW 12.0mph /  19.3km/h 12.0mph /  19.3km/h 78% 0.00in /  0mm
15:19 73.5 °F /  23.1 °C 66.2 °F /  19 °C 29.84in /  1010.4hPa SW 10.0mph /  16.1km/h 12.0mph /  19.3km/h 78% 0.00in /  0mm
15:24 73.5 °F /  23.1 °C 66.2 °F /  19 °C 29.84in /  1010.4hPa SW 13.0mph /  20.9km/h 13.0mph /  20.9km/h 78% 0.00in /  0mm
15:29 73.6 °F /  23.1 °C 66.3 °F /  19.1 °C 29.84in /  1010.4hPa SW 13.0mph /  20.9km/h 13.0mph /  20.9km/h 78% 0.00in /  0mm
15:34 73.4 °F /  23 °C 66.1 °F /  18.9 °C 29.84in /  1010.4hPa South 4.0mph /  6.4km/h 12.0mph /  19.3km/h 78% 0.00in /  0mm
15:39 73.5 °F /  23.1 °C 66.2 °F /  19 °C 29.84in /  1010.4hPa SSW 3.0mph /  4.8km/h 10.0mph /  16.1km/h 78% 0.00in /  0mm
15:44 73.4 °F /  23 °C 66.1 °F /  18.9 °C 29.84in /  1010.4hPa SW 4.0mph /  6.4km/h 12.0mph /  19.3km/h 78% 0.00in /  0mm
15:50 73.4 °F /  23 °C 66.1 °F /  18.9 °C 29.84in /  1010.4hPa SW 9.0mph /  14.5km/h 13.0mph /  20.9km/h 78% 0.00in /  0mm
15:55 73.2 °F /  22.9 °C 65.9 °F /  18.8 °C 29.84in /  1010.4hPa WSW 4.0mph /  6.4km/h 12.0mph /  19.3km/h 78% 0.00in /  0mm
16:00 73.3 °F /  22.9 °C 66.0 °F /  18.9 °C 29.84in /  1010.4hPa SW 7.0mph /  11.3km/h 12.0mph /  19.3km/h 78% 0.00in /  0mm
16:05 73.3 °F /  22.9 °C 66.4 °F /  19.1 °C 29.84in /  1010.4hPa South 13.0mph /  20.9km/h 13.0mph /  20.9km/h 79% 0.00in /  0mm
16:10 73.3 °F /  22.9 °C 66.0 °F /  18.9 °C 29.84in /  1010.4hPa SW 8.0mph /  12.9km/h 12.0mph /  19.3km/h 78% 0.00in /  0mm
16:15 73.4 °F /  23 °C 66.1 °F /  18.9 °C 29.84in /  1010.4hPa SSW 5.0mph /  8km/h 11.0mph /  17.7km/h 78% 0.00in /  0mm
16:20 73.5 °F /  23.1 °C 66.6 °F /  19.2 °C 29.83in /  1010hPa WSW 10.0mph /  16.1km/h 13.0mph /  20.9km/h 79% 0.00in /  0mm
16:25 73.8 °F /  23.2 °C 66.9 °F /  19.4 °C 29.83in /  1010hPa SW 9.0mph /  14.5km/h 12.0mph /  19.3km/h 79% 0.00in /  0mm
16:30 74.0 °F /  23.3 °C 67.1 °F /  19.5 °C 29.83in /  1010hPa WSW 8.0mph /  12.9km/h 11.0mph /  17.7km/h 79% 0.00in /  0mm
16:35 74.1 °F /  23.4 °C 67.2 °F /  19.6 °C 29.83in /  1010hPa SW 7.0mph /  11.3km/h 10.0mph /  16.1km/h 79% 0.00in /  0mm
16:40 74.1 °F /  23.4 °C 66.8 °F /  19.3 °C 29.83in /  1010hPa WSW 8.0mph /  12.9km/h 10.0mph /  16.1km/h 78% 0.00in /  0mm
16:45 74.0 °F /  23.3 °C 67.1 °F /  19.5 °C 29.83in /  1010hPa WSW 4.0mph /  6.4km/h 8.0mph /  12.9km/h 79% 0.00in /  0mm
16:50 74.0 °F /  23.3 °C 67.1 °F /  19.5 °C 29.83in /  1010hPa SW 4.0mph /  6.4km/h 8.0mph /  12.9km/h 79% 0.00in /  0mm
16:55 74.0 °F /  23.3 °C 67.1 °F /  19.5 °C 29.83in /  1010hPa SSW 4.0mph /  6.4km/h 13.0mph /  20.9km/h 79% 0.00in /  0mm
16:56 73.9 °F /  23.3 °C 67.0 °F /  19.4 °C 29.83in /  1010hPa SSW 5.0mph /  8km/h 13.0mph /  20.9km/h 79% 0.00in /  0mm
17:01 73.9 °F /  23.3 °C 67.0 °F /  19.4 °C 29.83in /  1010hPa WSW 4.0mph /  6.4km/h 9.0mph /  14.5km/h 79% 0.00in /  0mm
17:06 73.8 °F /  23.2 °C 66.9 °F /  19.4 °C 29.83in /  1010hPa WSW 5.0mph /  8km/h 8.0mph /  12.9km/h 79% 0.00in /  0mm
17:11 73.7 °F /  23.2 °C 66.8 °F /  19.3 °C 29.83in /  1010hPa SW 10.0mph /  16.1km/h 11.0mph /  17.7km/h 79% 0.00in /  0mm
17:16 73.5 °F /  23.1 °C 66.6 °F /  19.2 °C 29.83in /  1010hPa WSW 8.0mph /  12.9km/h 10.0mph /  16.1km/h 79% 0.00in /  0mm
17:21 73.4 °F /  23 °C 66.9 °F /  19.4 °C 29.83in /  1010hPa SW 7.0mph /  11.3km/h 9.0mph /  14.5km/h 80% 0.00in /  0mm
17:26 73.3 °F /  22.9 °C 66.8 °F /  19.3 °C 29.83in /  1010hPa SW 7.0mph /  11.3km/h 8.0mph /  12.9km/h 80% 0.00in /  0mm
17:31 73.3 °F /  22.9 °C 67.1 °F /  19.5 °C 29.84in /  1010.4hPa SW 3.0mph /  4.8km/h 6.0mph /  9.7km/h 81% 0.00in /  0mm
17:36 73.3 °F /  22.9 °C 67.1 °F /  19.5 °C 29.84in /  1010.4hPa SW 2.0mph /  3.2km/h 5.0mph /  8km/h 81% 0.00in /  0mm
17:41 73.3 °F /  22.9 °C 67.1 °F /  19.5 °C 29.84in /  1010.4hPa SW 2.0mph /  3.2km/h 6.0mph /  9.7km/h 81% 0.00in /  0mm
17:46 73.3 °F /  22.9 °C 67.1 °F /  19.5 °C 29.83in /  1010hPa SW 5.0mph /  8km/h 6.0mph /  9.7km/h 81% 0.00in /  0mm
17:51 73.3 °F /  22.9 °C 67.1 °F /  19.5 °C 29.83in /  1010hPa South 6.0mph /  9.7km/h 8.0mph /  12.9km/h 81% 0.00in /  0mm
17:56 73.3 °F /  22.9 °C 67.1 °F /  19.5 °C 29.83in /  1010hPa SW 2.0mph /  3.2km/h 10.0mph /  16.1km/h 81% 0.00in /  0mm
18:01 73.4 °F /  23 °C 67.2 °F /  19.6 °C 29.83in /  1010hPa SW 6.0mph /  9.7km/h 9.0mph /  14.5km/h 81% 0.00in /  0mm
18:06 73.5 °F /  23.1 °C 67.3 °F /  19.6 °C 29.83in /  1010hPa SW 6.0mph /  9.7km/h 8.0mph /  12.9km/h 81% 0.00in /  0mm
18:11 73.5 °F /  23.1 °C 67.0 °F /  19.4 °C 29.83in /  1010hPa WSW 6.0mph /  9.7km/h 10.0mph /  16.1km/h 80% 0.00in /  0mm
18:16 73.4 °F /  23 °C 66.9 °F /  19.4 °C 29.83in /  1010hPa SSW 4.0mph /  6.4km/h 8.0mph /  12.9km/h 80% 0.00in /  0mm
18:21 73.2 °F /  22.9 °C 67.0 °F /  19.4 °C 29.83in /  1010hPa SW 5.0mph /  8km/h 9.0mph /  14.5km/h 81% 0.00in /  0mm
18:27 73.1 °F /  22.8 °C 66.9 °F /  19.4 °C 29.83in /  1010hPa SW 7.0mph /  11.3km/h 8.0mph /  12.9km/h 81% 0.00in /  0mm
18:32 72.9 °F /  22.7 °C 66.7 °F /  19.3 °C 29.83in /  1010hPa SW 4.0mph /  6.4km/h 6.0mph /  9.7km/h 81% 0.00in /  0mm
18:37 72.9 °F /  22.7 °C 67.1 °F /  19.5 °C 29.83in /  1010hPa SSW 3.0mph /  4.8km/h 6.0mph /  9.7km/h 82% 0.00in /  0mm
18:42 72.9 °F /  22.7 °C 67.1 °F /  19.5 °C 29.83in /  1010hPa SW 5.0mph /  8km/h 6.0mph /  9.7km/h 82% 0.00in /  0mm
18:47 72.9 °F /  22.7 °C 67.1 °F /  19.5 °C 29.84in /  1010.4hPa SW 2.0mph /  3.2km/h 6.0mph /  9.7km/h 82% 0.00in /  0mm
18:52 73.0 °F /  22.8 °C 67.2 °F /  19.6 °C 29.84in /  1010.4hPa WSW 4.0mph /  6.4km/h 6.0mph /  9.7km/h 82% 0.00in /  0mm
18:57 73.1 °F /  22.8 °C 67.3 °F /  19.6 °C 29.84in /  1010.4hPa SW 9.0mph /  14.5km/h 9.0mph /  14.5km/h 82% 0.00in /  0mm
19:02 73.0 °F /  22.8 °C 67.2 °F /  19.6 °C 29.84in /  1010.4hPa WSW 6.0mph /  9.7km/h 8.0mph /  12.9km/h 82% 0.00in /  0mm
19:07 72.9 °F /  22.7 °C 67.1 °F /  19.5 °C 29.84in /  1010.4hPa SW 5.0mph /  8km/h 10.0mph /  16.1km/h 82% 0.00in /  0mm
19:12 72.8 °F /  22.7 °C 67.0 °F /  19.4 °C 29.83in /  1010hPa SW 2.0mph /  3.2km/h 7.0mph /  11.3km/h 82% 0.00in /  0mm
19:17 72.5 °F /  22.5 °C 67.1 °F /  19.5 °C 29.83in /  1010hPa WSW 2.0mph /  3.2km/h 4.0mph /  6.4km/h 83% 0.00in /  0mm
19:22 72.3 °F /  22.4 °C 66.8 °F /  19.3 °C 29.83in /  1010hPa South 3.0mph /  4.8km/h 4.0mph /  6.4km/h 83% 0.00in /  0mm
19:27 72.2 °F /  22.3 °C 66.8 °F /  19.3 °C 29.84in /  1010.4hPa South 2.0mph /  3.2km/h 5.0mph /  8km/h 83% 0.00in /  0mm
19:32 72.0 °F /  22.2 °C 66.9 °F /  19.4 °C 29.84in /  1010.4hPa SW 2.0mph /  3.2km/h 3.0mph /  4.8km/h 84% 0.00in /  0mm
19:37 71.8 °F /  22.1 °C 66.7 °F /  19.3 °C 29.83in /  1010hPa South 3.0mph /  4.8km/h 5.0mph /  8km/h 84% 0.00in /  0mm
19:42 71.7 °F /  22.1 °C 66.6 °F /  19.2 °C 29.83in /  1010hPa South 4.0mph /  6.4km/h 6.0mph /  9.7km/h 84% 0.00in /  0mm
19:47 71.6 °F /  22 °C 66.5 °F /  19.2 °C 29.83in /  1010hPa SSW 2.0mph /  3.2km/h 5.0mph /  8km/h 84% 0.00in /  0mm
19:52 71.5 °F /  21.9 °C 66.4 °F /  19.1 °C 29.84in /  1010.4hPa SW 4.0mph /  6.4km/h 5.0mph /  8km/h 84% 0.00in /  0mm
19:57 71.5 °F /  21.9 °C 66.8 °F /  19.3 °C 29.84in /  1010.4hPa SSW 3.0mph /  4.8km/h 7.0mph /  11.3km/h 85% 0.00in /  0mm
20:02 71.4 °F /  21.9 °C 66.7 °F /  19.3 °C 29.84in /  1010.4hPa SSW 2.0mph /  3.2km/h 5.0mph /  8km/h 85% 0.00in /  0mm
20:07 71.4 °F /  21.9 °C 66.7 °F /  19.3 °C 29.84in /  1010.4hPa South 2.0mph /  3.2km/h 3.0mph /  4.8km/h 85% 0.00in /  0mm
20:12 71.3 °F /  21.8 °C 66.6 °F /  19.2 °C 29.84in /  1010.4hPa SSW 1.0mph /  1.6km/h 3.0mph /  4.8km/h 85% 0.00in /  0mm
20:17 71.2 °F /  21.8 °C 66.5 °F /  19.2 °C 29.85in /  1010.7hPa SW 2.0mph /  3.2km/h 3.0mph /  4.8km/h 85% 0.00in /  0mm
20:22 71.2 °F /  21.8 °C 66.5 °F /  19.2 °C 29.86in /  1011.1hPa WSW 2.0mph /  3.2km/h 4.0mph /  6.4km/h 85% 0.00in /  0mm
20:28 71.1 °F /  21.7 °C 66.4 °F /  19.1 °C 29.86in /  1011.1hPa South 2.0mph /  3.2km/h 5.0mph /  8km/h 85% 0.00in /  0mm
20:33 70.8 °F /  21.6 °C 66.4 °F /  19.1 °C 29.86in /  1011.1hPa SSE 1.0mph /  1.6km/h 3.0mph /  4.8km/h 86% 0.00in /  0mm
20:38 70.9 °F /  21.6 °C 66.5 °F /  19.2 °C 29.87in /  1011.4hPa SW 1.0mph /  1.6km/h 3.0mph /  4.8km/h 86% 0.00in /  0mm
20:43 70.7 °F /  21.5 °C 66.3 °F /  19.1 °C 29.87in /  1011.4hPa SSW 2.0mph /  3.2km/h 3.0mph /  4.8km/h 86% 0.00in /  0mm
20:48 70.7 °F /  21.5 °C 66.3 °F /  19.1 °C 29.86in /  1011.1hPa SSW 1.0mph /  1.6km/h 3.0mph /  4.8km/h 86% 0.00in /  0mm
20:53 70.5 °F /  21.4 °C 66.4 °F /  19.1 °C 29.87in /  1011.4hPa Calm   2.0mph /  3.2km/h 87% 0.00in /  0mm
20:58 70.4 °F /  21.3 °C 66.3 °F /  19.1 °C 29.87in /  1011.4hPa SSE 1.0mph /  1.6km/h 1.0mph /  1.6km/h 87% 0.00in /  0mm
21:03 70.4 °F /  21.3 °C 66.3 °F /  19.1 °C 29.87in /  1011.4hPa Calm   1.0mph /  1.6km/h 87% 0.00in /  0mm
21:08 70.3 °F /  21.3 °C 66.2 °F /  19 °C 29.87in /  1011.4hPa Calm     87% 0.00in /  0mm
21:13 70.2 °F /  21.2 °C 66.2 °F /  19 °C 29.87in /  1011.4hPa Calm   1.0mph /  1.6km/h 87% 0.00in /  0mm
21:18 70.0 °F /  21.1 °C 66.3 °F /  19.1 °C 29.87in /  1011.4hPa Calm   1.0mph /  1.6km/h 88% 0.00in /  0mm
21:23 69.8 °F /  21 °C 66.1 °F /  18.9 °C 29.87in /  1011.4hPa Calm     88% 0.00in /  0mm
21:28 69.6 °F /  20.9 °C 65.9 °F /  18.8 °C 29.87in /  1011.4hPa South 1.0mph /  1.6km/h 1.0mph /  1.6km/h 88% 0.00in /  0mm
21:33 69.5 °F /  20.8 °C 66.1 °F /  18.9 °C 29.87in /  1011.4hPa SE 2.0mph /  3.2km/h 3.0mph /  4.8km/h 89% 0.00in /  0mm
21:38 69.6 °F /  20.9 °C 66.2 °F /  19 °C 29.87in /  1011.4hPa SSE 2.0mph /  3.2km/h 2.0mph /  3.2km/h 89% 0.00in /  0mm
21:43 69.5 °F /  20.8 °C 65.8 °F /  18.8 °C 29.87in /  1011.4hPa SE 1.0mph /  1.6km/h 2.0mph /  3.2km/h 88% 0.00in /  0mm
21:48 69.3 °F /  20.7 °C 65.9 °F /  18.8 °C 29.87in /  1011.4hPa Calm   1.0mph /  1.6km/h 89% 0.00in /  0mm
21:53 69.1 °F /  20.6 °C 65.7 °F /  18.7 °C 29.87in /  1011.4hPa Calm   1.0mph /  1.6km/h 89% 0.00in /  0mm
21:58 68.8 °F /  20.4 °C 65.4 °F /  18.6 °C 29.88in /  1011.7hPa Calm   1.0mph /  1.6km/h 89% 0.00in /  0mm
22:03 68.6 °F /  20.3 °C 65.6 °F /  18.7 °C 29.88in /  1011.7hPa SSE 1.0mph /  1.6km/h 1.0mph /  1.6km/h 90% 0.00in /  0mm
22:08 68.6 °F /  20.3 °C 65.6 °F /  18.7 °C 29.88in /  1011.7hPa Calm     90% 0.00in /  0mm
22:13 68.6 °F /  20.3 °C 65.6 °F /  18.7 °C 29.88in /  1011.7hPa Calm     90% 0.00in /  0mm
22:18 68.5 °F /  20.3 °C 65.5 °F /  18.6 °C 29.88in /  1011.7hPa SE 1.0mph /  1.6km/h 1.0mph /  1.6km/h 90% 0.00in /  0mm
22:23 68.3 °F /  20.2 °C 65.3 °F /  18.5 °C 29.88in /  1011.7hPa Calm   1.0mph /  1.6km/h 90% 0.00in /  0mm
22:28 68.1 °F /  20.1 °C 65.1 °F /  18.4 °C 29.88in /  1011.7hPa SE 2.0mph /  3.2km/h 2.0mph /  3.2km/h 90% 0.00in /  0mm
22:33 67.7 °F /  19.8 °C 65.0 °F /  18.3 °C 29.88in /  1011.7hPa Calm   2.0mph /  3.2km/h 91% 0.00in /  0mm
22:38 67.7 °F /  19.8 °C 65.0 °F /  18.3 °C 29.89in /  1012.1hPa Calm     91% 0.00in /  0mm
22:43 67.7 °F /  19.8 °C 65.0 °F /  18.3 °C 29.89in /  1012.1hPa Calm     91% 0.00in /  0mm
22:49 67.6 °F /  19.8 °C 64.9 °F /  18.3 °C 29.89in /  1012.1hPa Calm     91% 0.00in /  0mm
22:53 67.6 °F /  19.8 °C 64.9 °F /  18.3 °C 29.89in /  1012.1hPa SSE 1.0mph /  1.6km/h 2.0mph /  3.2km/h 91% 0.00in /  0mm
22:59 67.4 °F /  19.7 °C 64.7 °F /  18.2 °C 29.89in /  1012.1hPa SE 2.0mph /  3.2km/h 3.0mph /  4.8km/h 91% 0.00in /  0mm
23:04 67.2 °F /  19.6 °C 64.8 °F /  18.2 °C 29.89in /  1012.1hPa SSE 1.0mph /  1.6km/h 2.0mph /  3.2km/h 92% 0.00in /  0mm
23:09 67.0 °F /  19.4 °C 64.6 °F /  18.1 °C 29.89in /  1012.1hPa Calm     92% 0.00in /  0mm
23:14 67.0 °F /  19.4 °C 64.6 °F /  18.1 °C 29.89in /  1012.1hPa Calm     92% 0.00in /  0mm
23:19 66.9 °F /  19.4 °C 64.5 °F /  18.1 °C 29.89in /  1012.1hPa Calm     92% 0.00in /  0mm
23:24 66.7 °F /  19.3 °C 64.3 °F /  17.9 °C 29.89in /  1012.1hPa Calm   1.0mph /  1.6km/h 92% 0.00in /  0mm
23:29 66.7 °F /  19.3 °C 64.3 °F /  17.9 °C 29.89in /  1012.1hPa Calm     92% 0.00in /  0mm
23:34 66.7 °F /  19.3 °C 64.3 °F /  17.9 °C 29.89in /  1012.1hPa Calm     92% 0.00in /  0mm
23:39 66.7 °F /  19.3 °C 64.3 °F /  17.9 °C 29.89in /  1012.1hPa Calm     92% 0.00in /  0mm
23:44 66.6 °F /  19.2 °C 64.2 °F /  17.9 °C 29.89in /  1012.1hPa Calm     92% 0.00in /  0mm
23:49 66.6 °F /  19.2 °C 64.2 °F /  17.9 °C 29.89in /  1012.1hPa Calm     92% 0.00in /  0mm
23:54 66.6 °F /  19.2 °C 64.5 °F /  18.1 °C 29.89in /  1012.1hPa Calm   1.0mph /  1.6km/h 93% 0.00in /  0mm
23:59 66.6 °F /  19.2 °C 64.5 °F /  18.1 °C 29.89in /  1012.1hPa South 1.0mph /  1.6km/h 1.0mph /  1.6km/h 93% 0.00in /  0mm
Compliments of Weather Underground